sensor_id;sensor_type;location;lat;lon;timestamp;P1;durP1;ratioP1;P2;durP2;ratioP2
7375;SDS011;3728;42.266;24.944;2024-01-07T00:01:47;6.77;;;3.10;;
7375;SDS011;3728;42.266;24.944;2024-01-07T00:04:17;5.87;;;2.80;;
7375;SDS011;3728;42.266;24.944;2024-01-07T00:06:45;7.53;;;2.87;;
7375;SDS011;3728;42.266;24.944;2024-01-07T00:09:13;9.20;;;2.73;;
7375;SDS011;3728;42.266;24.944;2024-01-07T00:11:40;3.67;;;2.77;;
7375;SDS011;3728;42.266;24.944;2024-01-07T00:14:07;9.13;;;3.03;;
7375;SDS011;3728;42.266;24.944;2024-01-07T00:16:34;7.60;;;3.13;;
7375;SDS011;3728;42.266;24.944;2024-01-07T00:19:01;8.43;;;2.93;;
7375;SDS011;3728;42.266;24.944;2024-01-07T00:21:29;6.03;;;3.23;;
7375;SDS011;3728;42.266;24.944;2024-01-07T00:23:56;7.70;;;3.23;;
7375;SDS011;3728;42.266;24.944;2024-01-07T00:26:23;7.00;;;3.20;;
7375;SDS011;3728;42.266;24.944;2024-01-07T00:28:50;7.67;;;3.10;;
7375;SDS011;3728;42.266;24.944;2024-01-07T00:31:17;8.10;;;3.03;;
7375;SDS011;3728;42.266;24.944;2024-01-07T00:33:44;7.60;;;3.00;;
7375;SDS011;3728;42.266;24.944;2024-01-07T00:36:12;5.90;;;3.20;;
7375;SDS011;3728;42.266;24.944;2024-01-07T00:38:39;5.87;;;3.07;;
7375;SDS011;3728;42.266;24.944;2024-01-07T00:41:06;5.53;;;2.87;;
7375;SDS011;3728;42.266;24.944;2024-01-07T00:43:33;5.37;;;2.80;;
7375;SDS011;3728;42.266;24.944;2024-01-07T00:45:59;7.27;;;2.80;;
7375;SDS011;3728;42.266;24.944;2024-01-07T00:48:27;4.53;;;2.97;;
7375;SDS011;3728;42.266;24.944;2024-01-07T00:50:54;5.60;;;3.33;;
7375;SDS011;3728;42.266;24.944;2024-01-07T00:53:21;7.90;;;3.27;;
7375;SDS011;3728;42.266;24.944;2024-01-07T00:55:48;5.40;;;3.40;;
7375;SDS011;3728;42.266;24.944;2024-01-07T00:58:15;5.20;;;3.07;;
7375;SDS011;3728;42.266;24.944;2024-01-07T01:00:43;6.80;;;3.50;;
7375;SDS011;3728;42.266;24.944;2024-01-07T01:03:11;5.60;;;3.20;;
7375;SDS011;3728;42.266;24.944;2024-01-07T01:05:38;6.33;;;3.23;;
7375;SDS011;3728;42.266;24.944;2024-01-07T01:08:05;4.40;;;2.90;;
7375;SDS011;3728;42.266;24.944;2024-01-07T01:10:32;3.67;;;3.17;;
7375;SDS011;3728;42.266;24.944;2024-01-07T01:12:59;6.20;;;3.03;;
7375;SDS011;3728;42.266;24.944;2024-01-07T01:15:26;6.37;;;3.00;;
7375;SDS011;3728;42.266;24.944;2024-01-07T01:17:53;7.07;;;3.60;;
7375;SDS011;3728;42.266;24.944;2024-01-07T01:20:20;7.03;;;3.30;;
7375;SDS011;3728;42.266;24.944;2024-01-07T01:22:47;7.40;;;3.60;;
7375;SDS011;3728;42.266;24.944;2024-01-07T01:25:14;5.80;;;3.50;;
7375;SDS011;3728;42.266;24.944;2024-01-07T01:27:41;4.60;;;3.37;;
7375;SDS011;3728;42.266;24.944;2024-01-07T01:30:09;5.73;;;3.50;;
7375;SDS011;3728;42.266;24.944;2024-01-07T01:32:36;8.63;;;3.83;;
7375;SDS011;3728;42.266;24.944;2024-01-07T01:35:04;6.67;;;3.83;;
7375;SDS011;3728;42.266;24.944;2024-01-07T01:37:32;7.33;;;3.60;;
7375;SDS011;3728;42.266;24.944;2024-01-07T01:40:02;7.13;;;3.37;;
7375;SDS011;3728;42.266;24.944;2024-01-07T01:42:30;5.10;;;3.60;;
7375;SDS011;3728;42.266;24.944;2024-01-07T01:44:58;5.13;;;3.60;;
7375;SDS011;3728;42.266;24.944;2024-01-07T01:47:29;3.87;;;3.50;;
7375;SDS011;3728;42.266;24.944;2024-01-07T01:49:57;4.70;;;3.07;;
7375;SDS011;3728;42.266;24.944;2024-01-07T01:52:25;8.83;;;3.87;;
7375;SDS011;3728;42.266;24.944;2024-01-07T01:54:53;8.00;;;3.40;;
7375;SDS011;3728;42.266;24.944;2024-01-07T01:57:21;9.17;;;3.63;;
7375;SDS011;3728;42.266;24.944;2024-01-07T01:59:51;6.90;;;3.73;;
7375;SDS011;3728;42.266;24.944;2024-01-07T02:02:18;7.70;;;3.83;;
7375;SDS011;3728;42.266;24.944;2024-01-07T02:04:45;6.73;;;3.53;;
7375;SDS011;3728;42.266;24.944;2024-01-07T02:07:12;7.20;;;3.40;;
7375;SDS011;3728;42.266;24.944;2024-01-07T02:09:40;5.80;;;3.30;;
7375;SDS011;3728;42.266;24.944;2024-01-07T02:12:07;5.53;;;3.17;;
7375;SDS011;3728;42.266;24.944;2024-01-07T02:14:38;7.33;;;3.47;;
7375;SDS011;3728;42.266;24.944;2024-01-07T02:17:06;6.40;;;3.37;;
7375;SDS011;3728;42.266;24.944;2024-01-07T02:19:33;3.97;;;2.83;;
7375;SDS011;3728;42.266;24.944;2024-01-07T02:22:00;6.57;;;3.23;;
7375;SDS011;3728;42.266;24.944;2024-01-07T02:24:27;7.87;;;3.30;;
7375;SDS011;3728;42.266;24.944;2024-01-07T02:26:56;4.40;;;2.73;;
7375;SDS011;3728;42.266;24.944;2024-01-07T02:29:24;3.20;;;2.90;;
7375;SDS011;3728;42.266;24.944;2024-01-07T02:31:51;3.67;;;2.53;;
7375;SDS011;3728;42.266;24.944;2024-01-07T02:34:18;4.13;;;2.83;;
7375;SDS011;3728;42.266;24.944;2024-01-07T02:36:45;7.27;;;2.53;;
7375;SDS011;3728;42.266;24.944;2024-01-07T02:39:12;5.63;;;2.53;;
7375;SDS011;3728;42.266;24.944;2024-01-07T02:41:39;5.17;;;2.57;;
7375;SDS011;3728;42.266;24.944;2024-01-07T02:44:06;3.43;;;2.20;;
7375;SDS011;3728;42.266;24.944;2024-01-07T02:46:37;5.70;;;2.80;;
7375;SDS011;3728;42.266;24.944;2024-01-07T02:49:03;6.23;;;2.30;;
7375;SDS011;3728;42.266;24.944;2024-01-07T02:51:30;3.77;;;2.40;;
7375;SDS011;3728;42.266;24.944;2024-01-07T02:53:57;3.83;;;1.93;;
7375;SDS011;3728;42.266;24.944;2024-01-07T02:56:24;5.13;;;2.80;;
7375;SDS011;3728;42.266;24.944;2024-01-07T02:58:51;4.17;;;2.20;;
7375;SDS011;3728;42.266;24.944;2024-01-07T03:01:20;3.57;;;2.10;;
7375;SDS011;3728;42.266;24.944;2024-01-07T03:03:49;5.10;;;2.60;;
7375;SDS011;3728;42.266;24.944;2024-01-07T03:06:17;4.30;;;2.17;;
7375;SDS011;3728;42.266;24.944;2024-01-07T03:08:44;4.10;;;2.10;;
7375;SDS011;3728;42.266;24.944;2024-01-07T03:11:11;5.13;;;2.50;;
7375;SDS011;3728;42.266;24.944;2024-01-07T03:13:39;5.87;;;2.03;;
7375;SDS011;3728;42.266;24.944;2024-01-07T03:16:06;3.60;;;2.00;;
7375;SDS011;3728;42.266;24.944;2024-01-07T03:18:34;5.90;;;2.10;;
7375;SDS011;3728;42.266;24.944;2024-01-07T03:21:01;5.77;;;2.37;;
7375;SDS011;3728;42.266;24.944;2024-01-07T03:23:28;5.03;;;2.10;;
7375;SDS011;3728;42.266;24.944;2024-01-07T03:25:57;4.10;;;2.40;;
7375;SDS011;3728;42.266;24.944;2024-01-07T03:28:24;9.30;;;2.40;;
7375;SDS011;3728;42.266;24.944;2024-01-07T03:30:51;4.23;;;2.23;;
7375;SDS011;3728;42.266;24.944;2024-01-07T03:33:18;4.23;;;2.10;;
7375;SDS011;3728;42.266;24.944;2024-01-07T03:35:45;3.80;;;2.37;;
7375;SDS011;3728;42.266;24.944;2024-01-07T03:38:12;5.03;;;2.13;;
7375;SDS011;3728;42.266;24.944;2024-01-07T03:40:40;3.10;;;2.10;;
7375;SDS011;3728;42.266;24.944;2024-01-07T03:43:07;5.10;;;2.40;;
7375;SDS011;3728;42.266;24.944;2024-01-07T03:45:34;6.10;;;2.63;;
7375;SDS011;3728;42.266;24.944;2024-01-07T03:48:02;5.57;;;3.17;;
7375;SDS011;3728;42.266;24.944;2024-01-07T03:50:29;3.77;;;2.23;;
7375;SDS011;3728;42.266;24.944;2024-01-07T03:52:56;5.40;;;3.00;;
7375;SDS011;3728;42.266;24.944;2024-01-07T03:55:23;6.47;;;3.00;;
7375;SDS011;3728;42.266;24.944;2024-01-07T03:57:52;6.97;;;3.13;;
7375;SDS011;3728;42.266;24.944;2024-01-07T04:00:20;6.07;;;3.20;;
7375;SDS011;3728;42.266;24.944;2024-01-07T04:02:47;8.73;;;3.40;;
7375;SDS011;3728;42.266;24.944;2024-01-07T04:05:14;5.47;;;3.23;;
7375;SDS011;3728;42.266;24.944;2024-01-07T04:07:41;6.80;;;3.60;;
7375;SDS011;3728;42.266;24.944;2024-01-07T04:10:08;7.03;;;3.60;;
7375;SDS011;3728;42.266;24.944;2024-01-07T04:12:36;5.47;;;3.07;;
7375;SDS011;3728;42.266;24.944;2024-01-07T04:15:04;6.40;;;3.63;;
7375;SDS011;3728;42.266;24.944;2024-01-07T04:17:31;5.37;;;3.47;;
7375;SDS011;3728;42.266;24.944;2024-01-07T04:19:58;6.47;;;4.10;;
7375;SDS011;3728;42.266;24.944;2024-01-07T04:22:25;5.83;;;3.70;;
7375;SDS011;3728;42.266;24.944;2024-01-07T04:24:52;7.57;;;4.00;;
7375;SDS011;3728;42.266;24.944;2024-01-07T04:27:20;6.57;;;3.37;;
7375;SDS011;3728;42.266;24.944;2024-01-07T04:29:47;7.50;;;4.10;;
7375;SDS011;3728;42.266;24.944;2024-01-07T04:32:14;8.93;;;4.07;;
7375;SDS011;3728;42.266;24.944;2024-01-07T04:34:41;9.07;;;3.27;;
7375;SDS011;3728;42.266;24.944;2024-01-07T04:37:08;5.20;;;3.63;;
7375;SDS011;3728;42.266;24.944;2024-01-07T04:39:37;6.13;;;3.80;;
7375;SDS011;3728;42.266;24.944;2024-01-07T04:42:04;4.67;;;3.57;;
7375;SDS011;3728;42.266;24.944;2024-01-07T04:44:34;8.20;;;3.93;;
7375;SDS011;3728;42.266;24.944;2024-01-07T04:47:01;5.17;;;3.43;;
7375;SDS011;3728;42.266;24.944;2024-01-07T04:49:28;5.10;;;3.40;;
7375;SDS011;3728;42.266;24.944;2024-01-07T04:51:55;5.57;;;3.50;;
7375;SDS011;3728;42.266;24.944;2024-01-07T04:54:22;7.37;;;3.63;;
7375;SDS011;3728;42.266;24.944;2024-01-07T04:56:50;7.70;;;3.50;;
7375;SDS011;3728;42.266;24.944;2024-01-07T04:59:17;4.73;;;2.90;;
7375;SDS011;3728;42.266;24.944;2024-01-07T05:01:44;4.57;;;3.10;;
7375;SDS011;3728;42.266;24.944;2024-01-07T05:04:12;4.37;;;2.93;;
7375;SDS011;3728;42.266;24.944;2024-01-07T05:06:39;7.63;;;3.20;;
7375;SDS011;3728;42.266;24.944;2024-01-07T05:09:07;6.00;;;3.23;;
7375;SDS011;3728;42.266;24.944;2024-01-07T05:11:38;6.30;;;3.10;;
7375;SDS011;3728;42.266;24.944;2024-01-07T05:14:06;8.37;;;3.40;;
7375;SDS011;3728;42.266;24.944;2024-01-07T05:16:33;5.60;;;2.97;;
7375;SDS011;3728;42.266;24.944;2024-01-07T05:19:00;3.90;;;2.70;;
7375;SDS011;3728;42.266;24.944;2024-01-07T05:21:28;4.63;;;2.77;;
7375;SDS011;3728;42.266;24.944;2024-01-07T05:23:55;7.63;;;3.03;;
7375;SDS011;3728;42.266;24.944;2024-01-07T05:26:22;7.53;;;3.20;;
7375;SDS011;3728;42.266;24.944;2024-01-07T05:28:49;6.33;;;3.17;;
7375;SDS011;3728;42.266;24.944;2024-01-07T05:31:17;3.80;;;2.33;;
7375;SDS011;3728;42.266;24.944;2024-01-07T05:33:45;5.17;;;2.77;;
7375;SDS011;3728;42.266;24.944;2024-01-07T05:36:13;54.77;;;20.17;;
7375;SDS011;3728;42.266;24.944;2024-01-07T05:38:43;59.67;;;23.80;;
7375;SDS011;3728;42.266;24.944;2024-01-07T05:41:10;39.43;;;16.07;;
7375;SDS011;3728;42.266;24.944;2024-01-07T05:43:37;8.00;;;4.43;;
7375;SDS011;3728;42.266;24.944;2024-01-07T05:46:04;10.07;;;4.40;;
7375;SDS011;3728;42.266;24.944;2024-01-07T05:48:41;8.43;;;4.03;;
7375;SDS011;3728;42.266;24.944;2024-01-07T05:51:13;5.80;;;4.20;;
7375;SDS011;3728;42.266;24.944;2024-01-07T05:53:41;7.57;;;3.73;;
7375;SDS011;3728;42.266;24.944;2024-01-07T05:56:10;5.17;;;3.37;;
7375;SDS011;3728;42.266;24.944;2024-01-07T05:58:38;6.10;;;3.03;;
7375;SDS011;3728;42.266;24.944;2024-01-07T06:01:06;5.73;;;3.33;;
7375;SDS011;3728;42.266;24.944;2024-01-07T06:03:35;4.73;;;3.40;;
7375;SDS011;3728;42.266;24.944;2024-01-07T06:06:03;9.60;;;3.40;;
7375;SDS011;3728;42.266;24.944;2024-01-07T06:08:31;6.60;;;3.40;;
7375;SDS011;3728;42.266;24.944;2024-01-07T06:10:58;6.43;;;3.67;;
7375;SDS011;3728;42.266;24.944;2024-01-07T06:13:25;10.37;;;3.93;;
7375;SDS011;3728;42.266;24.944;2024-01-07T06:15:52;16.20;;;5.80;;
7375;SDS011;3728;42.266;24.944;2024-01-07T06:18:20;14.97;;;8.53;;
7375;SDS011;3728;42.266;24.944;2024-01-07T06:20:48;18.60;;;14.37;;
7375;SDS011;3728;42.266;24.944;2024-01-07T06:23:16;16.43;;;13.17;;
7375;SDS011;3728;42.266;24.944;2024-01-07T06:25:43;18.73;;;13.50;;
7375;SDS011;3728;42.266;24.944;2024-01-07T06:28:10;16.93;;;12.87;;
7375;SDS011;3728;42.266;24.944;2024-01-07T06:30:37;15.93;;;11.13;;
7375;SDS011;3728;42.266;24.944;2024-01-07T06:33:05;28.30;;;13.50;;
7375;SDS011;3728;42.266;24.944;2024-01-07T06:35:32;24.33;;;17.77;;
7375;SDS011;3728;42.266;24.944;2024-01-07T06:37:59;29.63;;;18.40;;
7375;SDS011;3728;42.266;24.944;2024-01-07T06:40:26;31.90;;;19.77;;
7375;SDS011;3728;42.266;24.944;2024-01-07T06:42:53;31.40;;;20.37;;
7375;SDS011;3728;42.266;24.944;2024-01-07T06:45:21;21.67;;;12.90;;
7375;SDS011;3728;42.266;24.944;2024-01-07T06:47:48;14.97;;;8.37;;
7375;SDS011;3728;42.266;24.944;2024-01-07T06:50:15;11.57;;;8.50;;
7375;SDS011;3728;42.266;24.944;2024-01-07T06:52:43;18.07;;;9.07;;
7375;SDS011;3728;42.266;24.944;2024-01-07T06:55:10;15.40;;;9.33;;
7375;SDS011;3728;42.266;24.944;2024-01-07T06:57:37;14.30;;;8.90;;
7375;SDS011;3728;42.266;24.944;2024-01-07T07:00:05;17.30;;;9.97;;
7375;SDS011;3728;42.266;24.944;2024-01-07T07:02:33;12.30;;;9.93;;
7375;SDS011;3728;42.266;24.944;2024-01-07T07:05:00;15.03;;;10.40;;
7375;SDS011;3728;42.266;24.944;2024-01-07T07:07:28;10.33;;;7.27;;
7375;SDS011;3728;42.266;24.944;2024-01-07T07:09:55;12.17;;;8.57;;
7375;SDS011;3728;42.266;24.944;2024-01-07T07:12:22;10.73;;;8.20;;
7375;SDS011;3728;42.266;24.944;2024-01-07T07:14:49;10.27;;;6.87;;
7375;SDS011;3728;42.266;24.944;2024-01-07T07:17:18;11.87;;;6.23;;
7375;SDS011;3728;42.266;24.944;2024-01-07T07:19:45;11.97;;;8.13;;
7375;SDS011;3728;42.266;24.944;2024-01-07T07:22:14;18.30;;;12.60;;
7375;SDS011;3728;42.266;24.944;2024-01-07T07:24:41;13.80;;;9.67;;
7375;SDS011;3728;42.266;24.944;2024-01-07T07:27:09;9.87;;;7.67;;
7375;SDS011;3728;42.266;24.944;2024-01-07T07:29:36;6.87;;;3.47;;
7375;SDS011;3728;42.266;24.944;2024-01-07T07:32:04;6.13;;;3.17;;
7375;SDS011;3728;42.266;24.944;2024-01-07T07:34:31;3.23;;;2.50;;
7375;SDS011;3728;42.266;24.944;2024-01-07T07:36:59;6.00;;;2.30;;
7375;SDS011;3728;42.266;24.944;2024-01-07T07:39:26;2.77;;;2.17;;
7375;SDS011;3728;42.266;24.944;2024-01-07T07:41:54;5.73;;;3.90;;
7375;SDS011;3728;42.266;24.944;2024-01-07T07:44:21;7.23;;;5.80;;
7375;SDS011;3728;42.266;24.944;2024-01-07T07:46:48;10.53;;;7.97;;
7375;SDS011;3728;42.266;24.944;2024-01-07T07:49:15;13.17;;;9.60;;
7375;SDS011;3728;42.266;24.944;2024-01-07T07:51:43;8.20;;;5.43;;
7375;SDS011;3728;42.266;24.944;2024-01-07T07:54:13;9.13;;;4.53;;
7375;SDS011;3728;42.266;24.944;2024-01-07T07:56:40;6.07;;;3.93;;
7375;SDS011;3728;42.266;24.944;2024-01-07T07:59:09;7.23;;;3.90;;
7375;SDS011;3728;42.266;24.944;2024-01-07T08:01:37;6.63;;;4.87;;
7375;SDS011;3728;42.266;24.944;2024-01-07T08:04:04;9.83;;;5.67;;
7375;SDS011;3728;42.266;24.944;2024-01-07T08:06:32;10.07;;;6.57;;
7375;SDS011;3728;42.266;24.944;2024-01-07T08:08:59;5.53;;;4.30;;
7375;SDS011;3728;42.266;24.944;2024-01-07T08:11:26;7.67;;;3.50;;
7375;SDS011;3728;42.266;24.944;2024-01-07T08:13:56;3.77;;;3.03;;
7375;SDS011;3728;42.266;24.944;2024-01-07T08:16:24;3.87;;;3.30;;
7375;SDS011;3728;42.266;24.944;2024-01-07T08:18:51;4.60;;;3.20;;
7375;SDS011;3728;42.266;24.944;2024-01-07T08:21:19;2.20;;;2.00;;
7375;SDS011;3728;42.266;24.944;2024-01-07T08:23:46;4.73;;;2.70;;
7375;SDS011;3728;42.266;24.944;2024-01-07T08:26:18;3.57;;;2.50;;
7375;SDS011;3728;42.266;24.944;2024-01-07T08:28:46;5.23;;;3.00;;
7375;SDS011;3728;42.266;24.944;2024-01-07T08:31:15;3.60;;;2.53;;
7375;SDS011;3728;42.266;24.944;2024-01-07T08:33:42;4.90;;;2.00;;
7375;SDS011;3728;42.266;24.944;2024-01-07T08:36:09;6.17;;;2.53;;
7375;SDS011;3728;42.266;24.944;2024-01-07T08:38:36;4.77;;;3.27;;
7375;SDS011;3728;42.266;24.944;2024-01-07T08:41:03;6.10;;;4.40;;
7375;SDS011;3728;42.266;24.944;2024-01-07T08:43:31;9.00;;;6.63;;
7375;SDS011;3728;42.266;24.944;2024-01-07T08:46:03;10.97;;;5.97;;
7375;SDS011;3728;42.266;24.944;2024-01-07T08:48:34;4.30;;;2.10;;
7375;SDS011;3728;42.266;24.944;2024-01-07T08:51:01;3.87;;;1.67;;
7375;SDS011;3728;42.266;24.944;2024-01-07T08:53:31;3.83;;;2.00;;
7375;SDS011;3728;42.266;24.944;2024-01-07T08:55:59;5.50;;;1.40;;
7375;SDS011;3728;42.266;24.944;2024-01-07T08:58:26;3.13;;;1.50;;
7375;SDS011;3728;42.266;24.944;2024-01-07T09:00:53;4.77;;;1.23;;
7375;SDS011;3728;42.266;24.944;2024-01-07T09:03:20;3.50;;;1.20;;
7375;SDS011;3728;42.266;24.944;2024-01-07T09:05:47;8.23;;;1.37;;
7375;SDS011;3728;42.266;24.944;2024-01-07T09:08:14;4.70;;;1.50;;
7375;SDS011;3728;42.266;24.944;2024-01-07T09:10:44;3.50;;;1.27;;
7375;SDS011;3728;42.266;24.944;2024-01-07T09:13:11;2.40;;;1.03;;
7375;SDS011;3728;42.266;24.944;2024-01-07T09:15:38;6.43;;;1.30;;
7375;SDS011;3728;42.266;24.944;2024-01-07T09:18:05;2.83;;;0.90;;
7375;SDS011;3728;42.266;24.944;2024-01-07T09:20:35;2.67;;;1.33;;
7375;SDS011;3728;42.266;24.944;2024-01-07T09:23:02;5.83;;;1.43;;
7375;SDS011;3728;42.266;24.944;2024-01-07T09:25:29;4.57;;;1.17;;
7375;SDS011;3728;42.266;24.944;2024-01-07T09:27:57;5.10;;;1.23;;
7375;SDS011;3728;42.266;24.944;2024-01-07T09:30:24;3.37;;;1.20;;
7375;SDS011;3728;42.266;24.944;2024-01-07T09:32:51;7.03;;;1.13;;
7375;SDS011;3728;42.266;24.944;2024-01-07T09:35:18;5.47;;;1.43;;
7375;SDS011;3728;42.266;24.944;2024-01-07T09:37:45;2.80;;;1.10;;
7375;SDS011;3728;42.266;24.944;2024-01-07T09:40:12;5.80;;;1.20;;
7375;SDS011;3728;42.266;24.944;2024-01-07T09:42:46;3.67;;;1.17;;
7375;SDS011;3728;42.266;24.944;2024-01-07T09:45:13;4.03;;;1.30;;
7375;SDS011;3728;42.266;24.944;2024-01-07T09:47:41;7.70;;;1.40;;
7375;SDS011;3728;42.266;24.944;2024-01-07T09:50:13;4.27;;;1.30;;
7375;SDS011;3728;42.266;24.944;2024-01-07T09:52:42;4.13;;;1.00;;
7375;SDS011;3728;42.266;24.944;2024-01-07T09:55:15;5.33;;;1.50;;
7375;SDS011;3728;42.266;24.944;2024-01-07T09:57:53;5.83;;;1.60;;
7375;SDS011;3728;42.266;24.944;2024-01-07T10:00:20;8.10;;;1.43;;
7375;SDS011;3728;42.266;24.944;2024-01-07T10:02:47;7.53;;;1.40;;
7375;SDS011;3728;42.266;24.944;2024-01-07T10:05:15;7.67;;;1.40;;
7375;SDS011;3728;42.266;24.944;2024-01-07T10:07:42;3.77;;;1.17;;
7375;SDS011;3728;42.266;24.944;2024-01-07T10:10:15;6.13;;;1.67;;
7375;SDS011;3728;42.266;24.944;2024-01-07T10:12:44;4.47;;;1.40;;
7375;SDS011;3728;42.266;24.944;2024-01-07T10:15:15;8.40;;;2.80;;
7375;SDS011;3728;42.266;24.944;2024-01-07T10:17:42;6.13;;;2.63;;
7375;SDS011;3728;42.266;24.944;2024-01-07T10:20:11;7.70;;;2.23;;
7375;SDS011;3728;42.266;24.944;2024-01-07T10:22:39;7.80;;;2.43;;
7375;SDS011;3728;42.266;24.944;2024-01-07T10:25:07;7.40;;;3.33;;
7375;SDS011;3728;42.266;24.944;2024-01-07T10:27:35;10.33;;;2.97;;
7375;SDS011;3728;42.266;24.944;2024-01-07T10:30:03;6.37;;;2.00;;
7375;SDS011;3728;42.266;24.944;2024-01-07T10:32:31;6.30;;;2.20;;
7375;SDS011;3728;42.266;24.944;2024-01-07T10:35:02;8.07;;;2.03;;
7375;SDS011;3728;42.266;24.944;2024-01-07T10:37:32;8.93;;;3.00;;
7375;SDS011;3728;42.266;24.944;2024-01-07T10:40:00;7.37;;;2.70;;
7375;SDS011;3728;42.266;24.944;2024-01-07T10:42:31;6.60;;;2.00;;
7375;SDS011;3728;42.266;24.944;2024-01-07T10:45:02;9.10;;;2.37;;
7375;SDS011;3728;42.266;24.944;2024-01-07T10:47:32;9.27;;;2.20;;
7375;SDS011;3728;42.266;24.944;2024-01-07T10:50:04;10.93;;;2.70;;
7375;SDS011;3728;42.266;24.944;2024-01-07T10:52:35;7.57;;;2.53;;
7375;SDS011;3728;42.266;24.944;2024-01-07T10:55:09;8.63;;;2.33;;
7375;SDS011;3728;42.266;24.944;2024-01-07T10:57:43;10.60;;;2.20;;
7375;SDS011;3728;42.266;24.944;2024-01-07T11:00:12;10.87;;;2.30;;
7375;SDS011;3728;42.266;24.944;2024-01-07T11:05:52;12.20;;;3.43;;
7375;SDS011;3728;42.266;24.944;2024-01-07T11:08:46;8.67;;;3.00;;
7375;SDS011;3728;42.266;24.944;2024-01-07T11:11:18;9.00;;;4.03;;
7375;SDS011;3728;42.266;24.944;2024-01-07T11:13:50;15.03;;;6.20;;
7375;SDS011;3728;42.266;24.944;2024-01-07T11:19:12;12.20;;;3.97;;
7375;SDS011;3728;42.266;24.944;2024-01-07T11:21:41;9.23;;;4.30;;
7375;SDS011;3728;42.266;24.944;2024-01-07T11:24:08;11.20;;;3.17;;
7375;SDS011;3728;42.266;24.944;2024-01-07T11:26:36;10.03;;;3.43;;
7375;SDS011;3728;42.266;24.944;2024-01-07T11:29:07;7.23;;;3.10;;
7375;SDS011;3728;42.266;24.944;2024-01-07T11:34:10;9.80;;;2.70;;
7375;SDS011;3728;42.266;24.944;2024-01-07T11:37:12;9.17;;;2.70;;
7375;SDS011;3728;42.266;24.944;2024-01-07T11:39:44;8.73;;;3.00;;
7375;SDS011;3728;42.266;24.944;2024-01-07T11:42:12;9.37;;;3.13;;
7375;SDS011;3728;42.266;24.944;2024-01-07T11:44:51;13.83;;;2.90;;
7375;SDS011;3728;42.266;24.944;2024-01-07T11:47:21;7.73;;;2.60;;
7375;SDS011;3728;42.266;24.944;2024-01-07T11:49:50;7.17;;;2.10;;
7375;SDS011;3728;42.266;24.944;2024-01-07T11:52:18;9.97;;;2.53;;
7375;SDS011;3728;42.266;24.944;2024-01-07T11:54:46;8.93;;;2.90;;
7375;SDS011;3728;42.266;24.944;2024-01-07T11:57:14;8.87;;;2.80;;
7375;SDS011;3728;42.266;24.944;2024-01-07T11:59:42;12.63;;;3.57;;
7375;SDS011;3728;42.266;24.944;2024-01-07T12:02:11;22.30;;;9.03;;
7375;SDS011;3728;42.266;24.944;2024-01-07T12:04:38;13.07;;;4.10;;
7375;SDS011;3728;42.266;24.944;2024-01-07T12:07:06;14.07;;;3.87;;
7375;SDS011;3728;42.266;24.944;2024-01-07T12:09:34;11.73;;;4.57;;
7375;SDS011;3728;42.266;24.944;2024-01-07T12:12:02;15.60;;;5.40;;
7375;SDS011;3728;42.266;24.944;2024-01-07T12:14:31;14.97;;;6.27;;
7375;SDS011;3728;42.266;24.944;2024-01-07T12:16:59;21.30;;;9.70;;
7375;SDS011;3728;42.266;24.944;2024-01-07T12:19:26;26.07;;;8.10;;
7375;SDS011;3728;42.266;24.944;2024-01-07T12:22:06;12.50;;;5.80;;
7375;SDS011;3728;42.266;24.944;2024-01-07T12:24:33;14.30;;;4.63;;
7375;SDS011;3728;42.266;24.944;2024-01-07T12:27:05;18.17;;;6.47;;
7375;SDS011;3728;42.266;24.944;2024-01-07T12:29:34;18.43;;;5.20;;
7375;SDS011;3728;42.266;24.944;2024-01-07T12:32:02;12.67;;;5.00;;
7375;SDS011;3728;42.266;24.944;2024-01-07T12:34:32;15.33;;;5.03;;
7375;SDS011;3728;42.266;24.944;2024-01-07T12:37:00;11.00;;;4.83;;
7375;SDS011;3728;42.266;24.944;2024-01-07T12:39:29;10.90;;;4.23;;
7375;SDS011;3728;42.266;24.944;2024-01-07T12:41:56;12.83;;;4.47;;
7375;SDS011;3728;42.266;24.944;2024-01-07T12:44:26;13.17;;;4.57;;
7375;SDS011;3728;42.266;24.944;2024-01-07T12:46:55;9.67;;;4.33;;
7375;SDS011;3728;42.266;24.944;2024-01-07T12:49:22;15.50;;;4.17;;
7375;SDS011;3728;42.266;24.944;2024-01-07T12:51:51;16.50;;;4.40;;
7375;SDS011;3728;42.266;24.944;2024-01-07T12:54:19;12.13;;;4.43;;
7375;SDS011;3728;42.266;24.944;2024-01-07T12:56:49;18.10;;;5.27;;
7375;SDS011;3728;42.266;24.944;2024-01-07T12:59:16;12.20;;;3.93;;
7375;SDS011;3728;42.266;24.944;2024-01-07T13:01:43;11.40;;;4.23;;
7375;SDS011;3728;42.266;24.944;2024-01-07T13:04:11;13.03;;;4.53;;
7375;SDS011;3728;42.266;24.944;2024-01-07T13:06:41;18.17;;;5.47;;
7375;SDS011;3728;42.266;24.944;2024-01-07T13:09:08;21.07;;;6.60;;
7375;SDS011;3728;42.266;24.944;2024-01-07T13:11:35;16.97;;;6.60;;
7375;SDS011;3728;42.266;24.944;2024-01-07T13:14:03;20.30;;;7.80;;
7375;SDS011;3728;42.266;24.944;2024-01-07T13:16:32;18.37;;;7.13;;
7375;SDS011;3728;42.266;24.944;2024-01-07T13:19:00;24.80;;;9.50;;
7375;SDS011;3728;42.266;24.944;2024-01-07T13:21:28;32.53;;;18.80;;
7375;SDS011;3728;42.266;24.944;2024-01-07T13:23:56;46.87;;;23.13;;
7375;SDS011;3728;42.266;24.944;2024-01-07T13:26:27;60.33;;;33.43;;
7375;SDS011;3728;42.266;24.944;2024-01-07T13:28:56;24.90;;;13.43;;
7375;SDS011;3728;42.266;24.944;2024-01-07T13:31:24;22.30;;;8.07;;
7375;SDS011;3728;42.266;24.944;2024-01-07T13:33:51;26.27;;;11.93;;
7375;SDS011;3728;42.266;24.944;2024-01-07T13:36:20;30.13;;;12.57;;
7375;SDS011;3728;42.266;24.944;2024-01-07T13:38:47;28.43;;;14.17;;
7375;SDS011;3728;42.266;24.944;2024-01-07T13:41:16;17.87;;;6.57;;
7375;SDS011;3728;42.266;24.944;2024-01-07T13:43:44;13.67;;;5.20;;
7375;SDS011;3728;42.266;24.944;2024-01-07T13:46:14;18.07;;;5.77;;
7375;SDS011;3728;42.266;24.944;2024-01-07T13:48:42;14.13;;;5.43;;
7375;SDS011;3728;42.266;24.944;2024-01-07T13:51:11;17.60;;;6.07;;
7375;SDS011;3728;42.266;24.944;2024-01-07T13:53:38;15.13;;;6.10;;
7375;SDS011;3728;42.266;24.944;2024-01-07T13:56:06;19.47;;;9.40;;
7375;SDS011;3728;42.266;24.944;2024-01-07T13:58:34;18.57;;;10.07;;
7375;SDS011;3728;42.266;24.944;2024-01-07T14:01:03;24.70;;;10.10;;
7375;SDS011;3728;42.266;24.944;2024-01-07T14:03:32;24.20;;;10.60;;
7375;SDS011;3728;42.266;24.944;2024-01-07T14:05:59;19.73;;;9.93;;
7375;SDS011;3728;42.266;24.944;2024-01-07T14:08:30;22.93;;;9.00;;
7375;SDS011;3728;42.266;24.944;2024-01-07T14:10:57;17.60;;;6.90;;
7375;SDS011;3728;42.266;24.944;2024-01-07T14:13:24;26.63;;;11.60;;
7375;SDS011;3728;42.266;24.944;2024-01-07T14:15:54;31.10;;;17.73;;
7375;SDS011;3728;42.266;24.944;2024-01-07T14:18:22;38.77;;;18.63;;
7375;SDS011;3728;42.266;24.944;2024-01-07T14:20:51;28.13;;;13.17;;
7375;SDS011;3728;42.266;24.944;2024-01-07T14:23:20;22.53;;;9.60;;
7375;SDS011;3728;42.266;24.944;2024-01-07T14:25:47;17.77;;;8.70;;
7375;SDS011;3728;42.266;24.944;2024-01-07T14:28:15;31.97;;;13.90;;
7375;SDS011;3728;42.266;24.944;2024-01-07T14:30:42;41.37;;;17.23;;
7375;SDS011;3728;42.266;24.944;2024-01-07T14:33:09;35.43;;;16.23;;
7375;SDS011;3728;42.266;24.944;2024-01-07T14:35:37;30.57;;;13.30;;
7375;SDS011;3728;42.266;24.944;2024-01-07T14:38:04;19.73;;;8.83;;
7375;SDS011;3728;42.266;24.944;2024-01-07T14:40:34;32.40;;;10.83;;
7375;SDS011;3728;42.266;24.944;2024-01-07T14:43:03;32.40;;;16.97;;
7375;SDS011;3728;42.266;24.944;2024-01-07T14:45:31;39.90;;;24.77;;
7375;SDS011;3728;42.266;24.944;2024-01-07T14:47:58;41.70;;;24.23;;
7375;SDS011;3728;42.266;24.944;2024-01-07T14:50:26;31.07;;;17.17;;
7375;SDS011;3728;42.266;24.944;2024-01-07T14:53:04;27.30;;;14.70;;
7375;SDS011;3728;42.266;24.944;2024-01-07T14:55:32;33.83;;;13.37;;
7375;SDS011;3728;42.266;24.944;2024-01-07T14:57:59;30.63;;;13.80;;
7375;SDS011;3728;42.266;24.944;2024-01-07T15:00:26;28.70;;;12.63;;
7375;SDS011;3728;42.266;24.944;2024-01-07T15:02:54;26.47;;;12.67;;
7375;SDS011;3728;42.266;24.944;2024-01-07T15:05:24;37.27;;;22.90;;
7375;SDS011;3728;42.266;24.944;2024-01-07T15:07:52;37.33;;;19.13;;
7375;SDS011;3728;42.266;24.944;2024-01-07T15:10:20;26.70;;;12.00;;